Wetterdaten: Woche 27.02.06 - 05.03.06 (KW9)
Datum Zeit Temperatur Luftfeuchte Luftdruck Niederschlag Wind Richtung Sonne Solar Taupunkt Windchill
27.02.2006 00:00 -2.3 C 62 % 1017.9 hPa 0.0 l/m 1.3 km/h (1 Bft) NO 0.00 h 0 W/m -8.7 C -2.5 C
27.02.2006 01:00 -2.5 C 61 % 1017.9 hPa 0.0 l/m 3.3 km/h (1 Bft) NO 0.00 h 0 W/m -9.0 C -3.6 C
27.02.2006 02:00 -2.8 C 63 % 1018.0 hPa 0.0 l/m 2.6 km/h (1 Bft) NO 0.00 h 0 W/m -8.9 C -3.6 C
27.02.2006 03:00 -3.1 C 60 % 1018.0 hPa 0.0 l/m 1.4 km/h (1 Bft) NO 0.00 h 0 W/m -9.9 C -3.4 C
27.02.2006 04:00 -4.2 C 60 % 1018.2 hPa 0.0 l/m 0.7 km/h (0 Bft) NO 0.00 h 0 W/m -10.8 C -4.4 C
27.02.2006 05:00 -4.2 C 60 % 1018.2 hPa 0.0 l/m 0.6 km/h (0 Bft) NO 0.00 h 0 W/m -10.7 C -4.4 C
27.02.2006 06:00 -5.1 C 61 % 1018.3 hPa 0.0 l/m 2.7 km/h (1 Bft) NO 0.00 h 0 W/m -11.4 C -6.1 C
27.02.2006 07:00 -5.8 C 65 % 1018.4 hPa 0.0 l/m 0.4 km/h (0 Bft) NO 0.17 h 35 W/m -11.3 C -5.8 C
27.02.2006 08:00 -4.9 C 64 % 1018.3 hPa 0.0 l/m 0.3 km/h (0 Bft) NO 1.00 h 203 W/m -10.6 C -4.9 C
27.02.2006 09:00 -3.0 C 56 % 1018.0 hPa 0.0 l/m 4.3 km/h (1 Bft) NO 1.00 h 361 W/m -10.4 C -4.2 C
27.02.2006 10:00 -1.1 C 50 % 1017.7 hPa 0.0 l/m 4.7 km/h (1 Bft) NO 1.00 h 479 W/m -10.3 C -2.6 C
27.02.2006 11:00 0.2 C 45 % 1017.5 hPa 0.0 l/m 7.7 km/h (2 Bft) O-SO 1.00 h 559 W/m -10.4 C -2.0 C
27.02.2006 12:00 0.9 C 38 % 1016.4 hPa 0.0 l/m 3.3 km/h (1 Bft) N-NO 1.00 h 593 W/m -12.0 C 0.2 C
27.02.2006 13:00 1.9 C 28 % 1015.8 hPa 0.0 l/m 4.4 km/h (1 Bft) N 1.00 h 580 W/m -14.8 C 0.9 C
27.02.2006 14:00 2.2 C 20 % 1015.1 hPa 0.0 l/m 8.8 km/h (2 Bft) NO 1.00 h 515 W/m -18.3 C 0.1 C
27.02.2006 15:00 2.5 C 20 % 1015.1 hPa 0.0 l/m 5.7 km/h (1 Bft) O 0.97 h 399 W/m -18.2 C 1.0 C
27.02.2006 16:00 2.1 C 23 % 1015.2 hPa 0.0 l/m 8.6 km/h (2 Bft) O-SO 1.00 h 269 W/m -17.2 C -0.3 C
27.02.2006 17:00 1.1 C 38 % 1015.3 hPa 0.0 l/m 9.1 km/h (2 Bft) O-SO 0.53 h 80 W/m -11.6 C -1.7 C
27.02.2006 18:00 -1.2 C 52 % 1015.6 hPa 0.0 l/m 5.0 km/h (1 Bft) O-SO 0.00 h 8 W/m -9.8 C -2.7 C
27.02.2006 19:00 -2.2 C 57 % 1015.8 hPa 0.0 l/m 2.9 km/h (1 Bft) O-SO 0.00 h 0 W/m -9.5 C -3.0 C
27.02.2006 20:00 -2.6 C 57 % 1015.9 hPa 0.0 l/m 6.6 km/h (2 Bft) O-SO 0.00 h 0 W/m -10.0 C -5.1 C
27.02.2006 21:00 -3.2 C 61 % 1015.9 hPa 0.0 l/m 2.7 km/h (1 Bft) O-SO 0.00 h 0 W/m -9.5 C -3.8 C
27.02.2006 22:00 -3.9 C 69 % 1016.0 hPa 0.0 l/m 3.8 km/h (1 Bft) O-SO 0.00 h 0 W/m -8.6 C -5.1 C
27.02.2006 23:00 -4.7 C 71 % 1015.1 hPa 0.0 l/m 3.3 km/h (1 Bft) O-SO 0.00 h 0 W/m -9.2 C -5.7 C
28.02.2006 00:00 -5.4 C 75 % 1015.2 hPa 0.0 l/m 4.3 km/h (1 Bft) O-SO 0.00 h 0 W/m -9.2 C -6.4 C
28.02.2006 01:00 -5.5 C 74 % 1014.8 hPa 0.0 l/m 6.0 km/h (2 Bft) O-SO 0.00 h 0 W/m -9.3 C -8.2 C
28.02.2006 02:00 -6.1 C 75 % 1014.3 hPa 0.0 l/m 0.9 km/h (0 Bft) O-SO 0.00 h 0 W/m -9.9 C -6.2 C
28.02.2006 03:00 -6.3 C 77 % 1013.7 hPa 0.0 l/m 3.0 km/h (1 Bft) O-SO 0.00 h 0 W/m -9.7 C -7.3 C
28.02.2006 04:00 -5.7 C 77 % 1013.2 hPa 0.0 l/m 1.7 km/h (1 Bft) O-SO 0.00 h 0 W/m -9.1 C -6.2 C
28.02.2006 05:00 -5.5 C 74 % 1013.2 hPa 0.0 l/m 0.3 km/h (0 Bft) O-SO 0.00 h 0 W/m -9.4 C -5.5 C
28.02.2006 06:00 -5.3 C 72 % 1012.9 hPa 0.0 l/m 0.3 km/h (0 Bft) O-SO 0.00 h 0 W/m -9.5 C -5.3 C
28.02.2006 07:00 -4.6 C 68 % 1012.0 hPa 0.0 l/m 0.1 km/h (0 Bft) S 0.00 h 18 W/m -9.6 C -4.6 C
28.02.2006 08:00 -3.9 C 65 % 1011.9 hPa 0.0 l/m 4.5 km/h (1 Bft) S 0.00 h 44 W/m -9.5 C -5.4 C
28.02.2006 09:00 -3.5 C 72 % 1011.8 hPa 0.0 l/m 3.9 km/h (1 Bft) S 0.00 h 107 W/m -7.8 C -4.5 C
28.02.2006 10:00 -2.5 C 68 % 1010.6 hPa 0.0 l/m 4.9 km/h (1 Bft) SW 0.00 h 143 W/m -7.6 C -4.1 C
28.02.2006 11:00 -1.4 C 69 % 1009.9 hPa 0.0 l/m 7.4 km/h (2 Bft) SO 0.00 h 204 W/m -6.3 C -3.9 C
28.02.2006 12:00 -0.3 C 67 % 1009.0 hPa 0.0 l/m 11.6 km/h (2 Bft) SW 0.00 h 235 W/m -5.8 C -3.9 C
28.02.2006 13:00 0.5 C 64 % 1008.0 hPa 0.0 l/m 15.3 km/h (3 Bft) W 0.03 h 255 W/m -5.5 C -3.7 C
28.02.2006 14:00 1.3 C 57 % 1007.0 hPa 0.0 l/m 17.8 km/h (3 Bft) W 0.00 h 204 W/m -6.2 C -3.2 C
28.02.2006 15:00 1.7 C 54 % 1005.9 hPa 0.0 l/m 18.3 km/h (3 Bft) SW 0.07 h 202 W/m -6.5 C -2.8 C
28.02.2006 16:00 1.6 C 52 % 1005.9 hPa 0.0 l/m 19.6 km/h (3 Bft) W 0.00 h 60 W/m -7.1 C -3.1 C
28.02.2006 17:00 0.6 C 67 % 1005.1 hPa 0.0 l/m 14.9 km/h (3 Bft) W 0.00 h 18 W/m -4.8 C -3.5 C
28.02.2006 18:00 -0.2 C 84 % 1005.1 hPa 0.6 l/m 9.6 km/h (2 Bft) W 0.00 h 3 W/m -2.5 C -3.1 C
28.02.2006 19:00 -0.2 C 87 % 1006.1 hPa 0.3 l/m 3.9 km/h (1 Bft) W 0.00 h 0 W/m -2.1 C -1.3 C
28.02.2006 20:00 0.2 C 81 % 1006.1 hPa 0.0 l/m 13.3 km/h (3 Bft) W 0.00 h 0 W/m -2.7 C -3.6 C
28.02.2006 21:00 0.3 C 77 % 1006.1 hPa 0.3 l/m 10.3 km/h (2 Bft) W 0.00 h 0 W/m -3.3 C -2.7 C
28.02.2006 22:00 0.0 C 80 % 1006.2 hPa 0.3 l/m 6.7 km/h (2 Bft) W 0.00 h 0 W/m -3.1 C -1.9 C
28.02.2006 23:00 -0.2 C 85 % 1006.1 hPa 0.0 l/m 3.0 km/h (1 Bft) O-SO 0.00 h 0 W/m -2.4 C -1.0 C
01.03.2006 00:00 -0.3 C 85 % 1006.1 hPa 0.0 l/m 2.4 km/h (1 Bft) W 0.00 h 0 W/m -2.6 C -0.9 C
01.03.2006 01:00 -0.5 C 79 % 1006.2 hPa 0.0 l/m 4.2 km/h (1 Bft) W 0.00 h 0 W/m -3.7 C -1.7 C
01.03.2006 02:00 -0.6 C 76 % 1006.4 hPa 0.0 l/m 9.4 km/h (2 Bft) W-NW 0.00 h 0 W/m -4.2 C -3.6 C
01.03.2006 03:00 -0.8 C 83 % 1006.4 hPa 0.3 l/m 4.4 km/h (1 Bft) W 0.00 h 0 W/m -3.3 C -2.0 C
01.03.2006 04:00 -0.9 C 83 % 1006.2 hPa 0.3 l/m 14.5 km/h (3 Bft) W-NW 0.00 h 0 W/m -3.5 C -4.8 C
01.03.2006 05:00 -1.0 C 79 % 1006.4 hPa 0.0 l/m 20.4 km/h (4 Bft) W-NW 0.00 h 0 W/m -4.2 C -6.5 C
01.03.2006 06:00 -1.1 C 82 % 1006.6 hPa 0.3 l/m 6.5 km/h (2 Bft) W 0.00 h 0 W/m -3.7 C -3.1 C
01.03.2006 07:00 -1.7 C 77 % 1006.4 hPa 0.0 l/m 5.4 km/h (1 Bft) SO 0.00 h 18 W/m -5.3 C -3.5 C
01.03.2006 08:00 -1.2 C 81 % 1007.0 hPa 0.6 l/m 11.2 km/h (2 Bft) W-NW 0.00 h 41 W/m -4.1 C -4.7 C
01.03.2006 09:00 -0.6 C 73 % 1007.2 hPa 0.3 l/m 24.7 km/h (4 Bft) W-NW 0.20 h 189 W/m -4.8 C -6.4 C
01.03.2006 10:00 -0.8 C 70 % 1008.8 hPa 0.3 l/m 26.9 km/h (4 Bft) NW 0.63 h 294 W/m -5.7 C -7.0 C
01.03.2006 11:00 -0.9 C 69 % 1009.8 hPa 0.0 l/m 24.3 km/h (4 Bft) W-NW 0.33 h 321 W/m -6.0 C -6.9 C
01.03.2006 12:00 -0.0 C 52 % 1010.6 hPa 0.0 l/m 30.7 km/h (5 Bft) W-NW 0.83 h 553 W/m -8.7 C -6.5 C
01.03.2006 13:00 0.2 C 46 % 1011.0 hPa 0.0 l/m 23.7 km/h (4 Bft) W-NW 0.40 h 430 W/m -10.0 C -5.3 C
01.03.2006 14:00 1.4 C 36 % 1010.1 hPa 0.0 l/m 27.1 km/h (4 Bft) W-NW 1.00 h 665 W/m -12.2 C -4.3 C
01.03.2006 15:00 1.9 C 34 % 1010.0 hPa 0.0 l/m 21.3 km/h (4 Bft) W-NW 1.00 h 465 W/m -12.2 C -3.0 C
01.03.2006 16:00 1.0 C 37 % 1010.1 hPa 0.0 l/m 20.8 km/h (4 Bft) NW 0.83 h 258 W/m -12.1 C -4.0 C
01.03.2006 17:00 -0.1 C 39 % 1010.0 hPa 0.0 l/m 17.3 km/h (3 Bft) W-NW 0.40 h 75 W/m -12.2 C -4.9 C
01.03.2006 18:00 -1.6 C 47 % 1010.5 hPa 0.0 l/m 10.9 km/h (2 Bft) W-NW 0.03 h 10 W/m -11.5 C -5.3 C
01.03.2006 19:00 -2.8 C 54 % 1010.7 hPa 0.0 l/m 8.1 km/h (2 Bft) W-NW 0.00 h 0 W/m -10.8 C -5.8 C
01.03.2006 20:00 -4.4 C 61 % 1010.9 hPa 0.0 l/m 2.5 km/h (1 Bft) O-SO 0.00 h 0 W/m -10.8 C -5.3 C
01.03.2006 21:00 -5.8 C 66 % 1011.1 hPa 0.0 l/m 5.0 km/h (1 Bft) O-SO 0.00 h 0 W/m -11.1 C -7.8 C
01.03.2006 22:00 -6.5 C 65 % 1011.2 hPa 0.0 l/m 2.5 km/h (1 Bft) SO 0.00 h 0 W/m -12.0 C -7.5 C
01.03.2006 23:00 -7.9 C 70 % 1011.4 hPa 0.0 l/m 0.0 km/h (0 Bft) N 0.00 h 0 W/m -12.3 C -7.9 C
02.03.2006 00:00 -8.8 C 72 % 1010.7 hPa 0.0 l/m 1.4 km/h (1 Bft) SO 0.00 h 0 W/m -13.0 C -9.1 C
02.03.2006 01:00 -10.2 C 71 % 1010.8 hPa 0.0 l/m 0.1 km/h (0 Bft) SO 0.00 h 0 W/m -14.4 C -10.2 C
02.03.2006 02:00 -10.8 C 71 % 1010.9 hPa 0.0 l/m 0.5 km/h (0 Bft) SO 0.00 h 0 W/m -14.9 C -10.9 C
02.03.2006 03:00 -11.2 C 71 % 1010.0 hPa 0.0 l/m 0.0 km/h (0 Bft) N 0.00 h 0 W/m -15.3 C -11.2 C
02.03.2006 04:00 -10.7 C 73 % 1009.8 hPa 0.0 l/m 0.2 km/h (0 Bft) SO 0.00 h 0 W/m -14.6 C -10.7 C
02.03.2006 05:00 -9.5 C 75 % 1009.6 hPa 0.0 l/m 0.0 km/h (0 Bft) N 0.00 h 0 W/m -13.1 C -9.5 C
02.03.2006 06:00 -9.1 C 75 % 1009.5 hPa 0.0 l/m 0.0 km/h (0 Bft) N 0.00 h 0 W/m -12.6 C -9.1 C
02.03.2006 07:00 -8.2 C 76 % 1009.4 hPa 0.0 l/m 0.1 km/h (0 Bft) W-NW 0.00 h 17 W/m -11.7 C -8.2 C
02.03.2006 08:00 -6.5 C 73 % 1009.2 hPa 0.0 l/m 0.0 km/h (0 Bft) N 0.00 h 86 W/m -10.5 C -6.5 C
02.03.2006 09:00 -4.7 C 68 % 1008.9 hPa 0.0 l/m 0.1 km/h (0 Bft) N 0.13 h 155 W/m -9.7 C -4.7 C
02.03.2006 10:00 -2.8 C 71 % 1008.1 hPa 0.6 l/m 2.5 km/h (1 Bft) S-SO 0.50 h 315 W/m -7.4 C -3.6 C
02.03.2006 11:00 -1.4 C 65 % 1008.3 hPa 0.0 l/m 7.8 km/h (2 Bft) W-NW 0.00 h 231 W/m -7.1 C -3.9 C
02.03.2006 12:00 -1.4 C 75 % 1008.4 hPa 0.3 l/m 3.7 km/h (1 Bft) W-NW 0.00 h 134 W/m -5.3 C -2.6 C
02.03.2006 13:00 -0.2 C 79 % 1008.2 hPa 0.6 l/m 11.2 km/h (2 Bft) W-NW 0.10 h 269 W/m -3.4 C -3.0 C
02.03.2006 14:00 1.0 C 63 % 1008.0 hPa 0.0 l/m 21.0 km/h (4 Bft) W-NW 0.73 h 463 W/m -5.3 C -4.0 C
02.03.2006 15:00 1.2 C 59 % 1008.0 hPa 0.3 l/m 14.4 km/h (3 Bft) W-NW 0.10 h 118 W/m -6.1 C -2.5 C
02.03.2006 16:00 -0.5 C 82 % 1008.3 hPa 1.0 l/m 15.8 km/h (3 Bft) W-NW 0.20 h 119 W/m -3.2 C -5.0 C
02.03.2006 17:00 -0.4 C 76 % 1009.2 hPa 0.3 l/m 6.0 km/h (2 Bft) W 0.13 h 53 W/m -4.2 C -2.2 C
02.03.2006 18:00 -0.8 C 73 % 1009.3 hPa 0.0 l/m 6.1 km/h (2 Bft) W-NW 0.03 h 10 W/m -5.1 C -3.0 C
02.03.2006 19:00 -1.6 C 77 % 1010.3 hPa 0.0 l/m 5.5 km/h (1 Bft) SO 0.00 h 0 W/m -5.2 C -3.6 C
02.03.2006 20:00 -1.9 C 79 % 1010.2 hPa 0.0 l/m 1.0 km/h (0 Bft) SO 0.00 h 0 W/m -5.1 C -1.9 C
02.03.2006 21:00 -1.6 C 81 % 1009.5 hPa 0.0 l/m 9.0 km/h (2 Bft) SO 0.00 h 0 W/m -4.4 C -4.7 C
02.03.2006 22:00 -1.7 C 80 % 1008.7 hPa 0.0 l/m 2.6 km/h (1 Bft) SO 0.00 h 0 W/m -4.6 C -2.6 C
02.03.2006 23:00 -2.0 C 82 % 1007.9 hPa 0.0 l/m 1.2 km/h (1 Bft) SO 0.00 h 0 W/m -4.7 C -2.1 C
03.03.2006 00:00 -1.8 C 82 % 1006.4 hPa 0.3 l/m 0.0 km/h (0 Bft) N 0.00 h 0 W/m -4.5 C -1.8 C
03.03.2006 01:00 -1.7 C 84 % 1005.8 hPa 1.0 l/m 0.0 km/h (0 Bft) N 0.00 h 0 W/m -3.9 C -1.7 C
03.03.2006 02:00 -1.6 C 88 % 1005.3 hPa 1.0 l/m 0.0 km/h (0 Bft) N 0.00 h 0 W/m -3.3 C -1.6 C
03.03.2006 03:00 -1.4 C 89 % 1003.8 hPa 1.0 l/m 3.1 km/h (1 Bft) O-SO 0.00 h 0 W/m -3.0 C -2.3 C
03.03.2006 04:00 -1.3 C 89 % 1002.4 hPa 1.3 l/m 1.4 km/h (1 Bft) O-SO 0.00 h 0 W/m -2.9 C -1.6 C
03.03.2006 05:00 -1.2 C 91 % 1001.4 hPa 2.0 l/m 0.0 km/h (0 Bft) N 0.00 h 0 W/m -2.4 C -1.2 C
03.03.2006 06:00 -1.0 C 93 % 1001.0 hPa 2.3 l/m 0.0 km/h (0 Bft) N 0.00 h 0 W/m -2.1 C -1.0 C
03.03.2006 07:00 -1.0 C 93 % 1001.0 hPa 2.0 l/m 0.0 km/h (0 Bft) N 0.00 h 14 W/m -1.9 C -1.0 C
03.03.2006 08:00 -0.4 C 95 % 1001.4 hPa 1.0 l/m 0.0 km/h (0 Bft) N 0.00 h 67 W/m -1.1 C -0.4 C
03.03.2006 09:00 0.2 C 90 % 1001.3 hPa 0.3 l/m 0.1 km/h (0 Bft) N 0.00 h 108 W/m -1.3 C 0.2 C
03.03.2006 10:00 1.2 C 85 % 1000.2 hPa 0.0 l/m 0.4 km/h (0 Bft) N-NW 0.83 h 430 W/m -1.0 C 1.1 C
03.03.2006 11:00 4.7 C 72 % 999.2 hPa 0.0 l/m 20.7 km/h (4 Bft) W 0.43 h 364 W/m -0.0 C 1.3 C
03.03.2006 12:00 6.5 C 61 % 999.6 hPa 0.0 l/m 24.9 km/h (4 Bft) W 0.30 h 294 W/m -0.5 C 2.5 C
03.03.2006 13:00 7.9 C 53 % 998.8 hPa 0.0 l/m 29.0 km/h (5 Bft) W 0.90 h 593 W/m -1.1 C 4.0 C
03.03.2006 14:00 8.6 C 49 % 997.9 hPa 0.0 l/m 24.0 km/h (4 Bft) W 0.73 h 379 W/m -1.4 C 5.3 C
03.03.2006 15:00 7.5 C 55 % 997.8 hPa 0.0 l/m 26.0 km/h (4 Bft) W 0.13 h 187 W/m -0.9 C 3.7 C
03.03.2006 16:00 7.6 C 55 % 997.8 hPa 0.0 l/m 21.8 km/h (4 Bft) W 0.00 h 84 W/m -1.0 C 4.2 C
03.03.2006 17:00 7.6 C 54 % 997.0 hPa 0.0 l/m 27.0 km/h (4 Bft) SW 0.00 h 32 W/m -1.1 C 3.8 C
03.03.2006 18:00 6.7 C 62 % 996.8 hPa 0.0 l/m 27.8 km/h (4 Bft) W 0.00 h 5 W/m -0.2 C 2.5 C
03.03.2006 19:00 6.3 C 65 % 996.9 hPa 0.0 l/m 22.7 km/h (4 Bft) W 0.00 h 0 W/m 0.2 C 2.5 C
03.03.2006 20:00 6.0 C 69 % 996.9 hPa 0.0 l/m 19.1 km/h (3 Bft) W-SW 0.00 h 0 W/m 0.7 C 2.5 C
03.03.2006 21:00 6.2 C 68 % 996.1 hPa 0.0 l/m 20.5 km/h (4 Bft) W 0.00 h 0 W/m 0.7 C 2.5 C
03.03.2006 22:00 6.4 C 67 % 995.5 hPa 0.3 l/m 23.0 km/h (4 Bft) W 0.00 h 0 W/m 0.7 C 2.6 C
03.03.2006 23:00 5.5 C 78 % 994.9 hPa 0.6 l/m 25.6 km/h (4 Bft) W 0.00 h 0 W/m 2.0 C 1.2 C
04.03.2006 00:00 6.5 C 72 % 993.8 hPa 0.0 l/m 24.6 km/h (4 Bft) W 0.00 h 0 W/m 1.8 C 2.5 C
04.03.2006 01:00 5.6 C 77 % 994.9 hPa 2.3 l/m 29.0 km/h (5 Bft) NW 0.00 h 0 W/m 1.8 C 0.9 C
04.03.2006 02:00 2.9 C 89 % 997.1 hPa 1.3 l/m 30.1 km/h (5 Bft) W-NW 0.00 h 0 W/m 1.2 C -2.6 C
04.03.2006 03:00 1.7 C 92 % 998.1 hPa 0.6 l/m 28.1 km/h (4 Bft) NW 0.00 h 0 W/m 0.5 C -4.0 C
04.03.2006 04:00 1.5 C 94 % 998.9 hPa 0.3 l/m 18.4 km/h (3 Bft) NW 0.00 h 0 W/m 0.5 C -2.8 C
04.03.2006 05:00 1.5 C 95 % 999.6 hPa 0.0 l/m 5.2 km/h (1 Bft) W-NW 0.00 h 0 W/m 0.7 C 0.1 C
04.03.2006 06:00 1.5 C 95 % 999.6 hPa 0.3 l/m 0.1 km/h (0 Bft) N 0.00 h 0 W/m 0.7 C 1.5 C
04.03.2006 07:00 1.0 C 95 % 999.1 hPa 0.6 l/m 0.4 km/h (0 Bft) S-SO 0.00 h 9 W/m 0.3 C 1.0 C
04.03.2006 08:00 1.0 C 95 % 998.7 hPa 0.6 l/m 0.7 km/h (0 Bft) NO 0.00 h 32 W/m 0.3 C 1.0 C
04.03.2006 09:00 0.7 C 96 % 998.7 hPa 1.6 l/m 0.0 km/h (0 Bft) N 0.00 h 44 W/m 0.2 C 0.7 C
04.03.2006 10:00 0.7 C 99 % 998.7 hPa 1.6 l/m 0.0 km/h (0 Bft) N 0.00 h 58 W/m 0.5 C 0.7 C
04.03.2006 11:00 0.9 C 98 % 998.2 hPa 1.6 l/m 0.0 km/h (0 Bft) N 0.00 h 113 W/m 0.6 C 0.9 C
04.03.2006 12:00 0.8 C 98 % 997.7 hPa 2.0 l/m 0.0 km/h (0 Bft) N 0.00 h 110 W/m 0.6 C 0.8 C
04.03.2006 13:00 0.8 C 99 % 996.6 hPa 1.6 l/m 0.1 km/h (0 Bft) N 0.00 h 115 W/m 0.6 C 0.8 C
04.03.2006 14:00 0.9 C 98 % 996.6 hPa 1.6 l/m 0.0 km/h (0 Bft) N 0.00 h 95 W/m 0.6 C 0.9 C
04.03.2006 15:00 0.8 C 98 % 996.6 hPa 2.0 l/m 0.0 km/h (0 Bft) N 0.00 h 72 W/m 0.5 C 0.8 C
04.03.2006 16:00 0.7 C 94 % 997.1 hPa 1.6 l/m 0.0 km/h (0 Bft) N 0.00 h 33 W/m -0.2 C 0.7 C
04.03.2006 17:00 0.4 C 92 % 997.7 hPa 2.0 l/m 0.0 km/h (0 Bft) N 0.00 h 10 W/m -0.7 C 0.4 C
04.03.2006 18:00 0.0 C 93 % 998.3 hPa 1.3 l/m 0.0 km/h (0 Bft) N 0.00 h 2 W/m -1.0 C 0.0 C
04.03.2006 19:00 -0.4 C 90 % 998.9 hPa 1.0 l/m 0.1 km/h (0 Bft) N 0.00 h 0 W/m -1.8 C -0.4 C
04.03.2006 20:00 -0.6 C 91 % 998.7 hPa 1.0 l/m 0.0 km/h (0 Bft) N 0.00 h 0 W/m -2.0 C -0.6 C
04.03.2006 21:00 -0.9 C 90 % 998.0 hPa 1.0 l/m 0.0 km/h (0 Bft) N 0.00 h 0 W/m -2.3 C -0.9 C
04.03.2006 22:00 -1.0 C 90 % 999.0 hPa 1.0 l/m 0.0 km/h (0 Bft) N 0.00 h 0 W/m -2.4 C -1.0 C
04.03.2006 23:00 -1.3 C 90 % 999.0 hPa 1.3 l/m 0.0 km/h (0 Bft) N 0.00 h 0 W/m -2.7 C -1.3 C
05.03.2006 00:00 -1.2 C 91 % 999.0 hPa 1.0 l/m 0.0 km/h (0 Bft) N 0.00 h 0 W/m -2.5 C -1.2 C
05.03.2006 01:00 -1.3 C 90 % 999.0 hPa 0.3 l/m 0.0 km/h (0 Bft) N 0.00 h 0 W/m -2.7 C -1.3 C
05.03.2006 02:00 -1.5 C 91 % 999.0 hPa 0.0 l/m 0.0 km/h (0 Bft) N 0.00 h 0 W/m -2.8 C -1.5 C
05.03.2006 03:00 -1.8 C 91 % 999.1 hPa 0.3 l/m 0.0 km/h (0 Bft) N 0.00 h 0 W/m -3.1 C -1.8 C
05.03.2006 04:00 -1.9 C 90 % 999.9 hPa 0.0 l/m 0.0 km/h (0 Bft) N 0.00 h 0 W/m -3.4 C -1.9 C
05.03.2006 05:00 -2.1 C 89 % 1001.3 hPa 0.0 l/m 0.0 km/h (0 Bft) N 0.00 h 0 W/m -3.8 C -2.1 C
05.03.2006 06:00 -2.2 C 87 % 1002.3 hPa 0.0 l/m 0.0 km/h (0 Bft) N 0.00 h 0 W/m -4.2 C -2.2 C
05.03.2006 07:00 -2.2 C 85 % 1003.5 hPa 0.0 l/m 0.0 km/h (0 Bft) N 0.00 h 13 W/m -4.3 C -2.2 C
05.03.2006 08:00 -1.8 C 88 % 1004.8 hPa 0.3 l/m 0.0 km/h (0 Bft) N 0.00 h 57 W/m -3.6 C -1.8 C
05.03.2006 09:00 -1.3 C 88 % 1006.0 hPa 0.6 l/m 0.0 km/h (0 Bft) N 0.00 h 138 W/m -3.0 C -1.3 C
05.03.2006 10:00 -0.7 C 86 % 1006.9 hPa 1.6 l/m 0.0 km/h (0 Bft) N 0.50 h 312 W/m -2.8 C -0.7 C
05.03.2006 11:00 0.2 C 83 % 1007.9 hPa 0.0 l/m 0.0 km/h (0 Bft) N 1.03 h 588 W/m -2.3 C 0.2 C
05.03.2006 12:00 0.8 C 78 % 1008.5 hPa 0.0 l/m 0.3 km/h (0 Bft) W-NW 1.00 h 721 W/m -2.6 C 0.7 C
05.03.2006 13:00 1.1 C 75 % 1009.1 hPa 0.0 l/m 3.5 km/h (1 Bft) NW 1.00 h 595 W/m -2.8 C 0.3 C
05.03.2006 14:00 3.1 C 67 % 1008.8 hPa 0.0 l/m 11.9 km/h (2 Bft) NW 0.93 h 629 W/m -2.5 C 0.4 C
05.03.2006 15:00 3.7 C 55 % 1009.7 hPa 0.0 l/m 10.8 km/h (2 Bft) NW 0.97 h 463 W/m -4.5 C 1.2 C
05.03.2006 16:00 2.6 C 58 % 1010.9 hPa 0.0 l/m 10.9 km/h (2 Bft) NW 1.00 h 363 W/m -4.9 C -0.3 C
05.03.2006 17:00 0.9 C 65 % 1011.5 hPa 0.0 l/m 6.6 km/h (2 Bft) NW 0.43 h 106 W/m -4.8 C -1.0 C
05.03.2006 18:00 -1.0 C 72 % 1012.9 hPa 0.0 l/m 5.8 km/h (2 Bft) NW 0.07 h 13 W/m -5.4 C -2.9 C
05.03.2006 19:00 -1.9 C 78 % 1014.2 hPa 0.0 l/m 1.1 km/h (0 Bft) S-SO 0.00 h 0 W/m -5.3 C -2.0 C
05.03.2006 20:00 -2.3 C 80 % 1014.8 hPa 0.0 l/m 0.9 km/h (0 Bft) S-SO 0.00 h 0 W/m -5.3 C -2.6 C
05.03.2006 21:00 -3.1 C 81 % 1015.0 hPa 0.0 l/m 1.7 km/h (1 Bft) S-SO 0.00 h 0 W/m -5.9 C -3.6 C
05.03.2006 22:00 -2.7 C 80 % 1015.9 hPa 0.0 l/m 1.6 km/h (1 Bft) S 0.00 h 0 W/m -5.6 C -3.1 C
05.03.2006 23:00 -2.6 C 80 % 1016.9 hPa 0.0 l/m 6.2 km/h (2 Bft) S-SO 0.00 h 0 W/m -5.5 C -4.8 C
Min-Datum _ 02.03.06 27.02.06 04.03.06 - 27.02.06 - - - 27.02.06 02.03.06
_ Min-Zeit 03:15 13:39 01:01 - 00:21 - - - 13:51 02:47
Minimum _ -11.6 C 20 % 993.6 hPa - 0.0 km/h (0 Bft) - - - -18.6 C -15.2 C
Max-Datum _ 03.03.06 04.03.06 27.02.06 03.03.06 01.03.06 - 05.03.06 03.03.06 03.03.06 03.03.06
_ Max-Zeit 14:13 10:17 07:21 06:01 10:49 - 10:34 11:15 11:19 17:35
Maximum _ 9.1 C 99 % 1018.5 hPa 2.3 l/m 50.3 km/h
NW (7 Bft)
- 0.07 h 1014 W/m 3.0 C 7.6 C
Durchschnitt _ -0.9 C 73 % 1007.1 hPa #52.6 l/m 7.3 km/h (2 Bft) W-NW #27:40 h 216 W/m -5.6 C -2.6 C
© Kaiko 2006